createdAt,value
2023-01-19T00:00:33.949Z,94436.06
2023-01-19T00:01:37.007Z,94434.13
2023-01-19T00:02:39.046Z,94444.09
2023-01-19T00:03:42.332Z,94440.25
2023-01-19T00:04:45.316Z,94443.72
2023-01-19T00:05:47.326Z,94453.31
2023-01-19T00:06:50.289Z,94442.91
2023-01-19T00:07:52.230Z,94446.41
2023-01-19T00:08:55.064Z,94444.47
2023-01-19T00:09:57.106Z,94449.44
2023-01-19T00:11:00.093Z,94447.53
2023-01-19T00:12:03.036Z,94446.41
2023-01-19T00:13:04.959Z,94455.63
2023-01-19T00:14:07.899Z,94453.69
2023-01-19T00:15:10.947Z,94461.78
2023-01-19T00:16:17.474Z,94459.47
2023-01-19T00:17:19.418Z,94457.97
2023-01-19T00:18:22.388Z,94462.59
2023-01-19T00:19:24.341Z,94464.53
2023-01-19T00:20:27.190Z,94463.78
2023-01-19T00:21:30.027Z,94464.53
2023-01-19T00:22:31.953Z,94465.28
2023-01-19T00:23:34.932Z,94473.38
2023-01-19T00:24:36.777Z,94478.78
2023-01-19T00:25:42.599Z,94473.38
2023-01-19T00:26:44.689Z,94465.28
2023-01-19T00:27:49.473Z,94468.00
2023-01-19T00:28:53.048Z,94482.66
2023-01-19T00:29:54.966Z,94470.31
2023-01-19T00:30:57.800Z,94482.66
2023-01-19T00:32:01.519Z,94478.78
2023-01-19T00:33:05.186Z,94482.22
2023-01-19T00:34:08.532Z,94484.91
2023-01-19T00:35:10.589Z,94481.09
2023-01-19T00:36:13.435Z,94483.00
2023-01-19T00:37:16.353Z,94492.63
2023-01-19T00:38:19.251Z,94483.75
2023-01-19T00:39:21.160Z,94489.91
2023-01-19T00:40:24.136Z,94487.19
2023-01-19T00:41:41.293Z,94481.03
2023-01-19T00:42:45.284Z,94493.38
2023-01-19T00:43:47.222Z,94488.00
2023-01-19T00:44:50.072Z,94488.00
2023-01-19T00:45:51.965Z,94496.44
2023-01-19T00:46:54.925Z,94493.75
2023-01-19T00:47:58.194Z,94488.38
2023-01-19T00:49:01.079Z,94496.44
2023-01-19T00:50:03.029Z,94491.81
2023-01-19T00:51:06.338Z,94489.88
2023-01-19T00:52:08.252Z,94491.06
2023-01-19T00:53:11.175Z,94494.91
2023-01-19T00:54:13.103Z,94496.44
2023-01-19T00:55:17.866Z,94489.50
2023-01-19T00:56:19.807Z,94492.22
2023-01-19T00:57:23.487Z,94497.22
2023-01-19T00:58:25.472Z,94504.94
2023-01-19T00:59:28.592Z,94497.22
2023-01-19T01:00:31.880Z,94492.59
2023-01-19T01:01:46.110Z,94494.16
2023-01-19T01:02:50.989Z,94495.72
2023-01-19T01:03:55.903Z,94503.03
2023-01-19T01:05:02.765Z,94494.94
2023-01-19T01:06:08.375Z,94501.88
2023-01-19T01:07:10.308Z,94501.09
2023-01-19T01:08:13.291Z,94501.09
2023-01-19T01:09:15.164Z,94501.09
2023-01-19T01:10:20.291Z,94513.03
2023-01-19T01:11:22.263Z,94517.28
2023-01-19T01:12:25.163Z,94518.81
2023-01-19T01:13:28.599Z,94501.09
2023-01-19T01:14:30.912Z,94518.81
2023-01-19T01:15:34.713Z,94516.09
2023-01-19T01:16:36.723Z,94513.41
2023-01-19T01:17:46.463Z,94516.88
2023-01-19T01:18:48.335Z,94510.72
2023-01-19T01:19:52.744Z,94514.19
2023-01-19T01:21:01.165Z,94509.94
2023-01-19T01:22:04.076Z,94508.44
2023-01-19T01:23:06.017Z,94512.66
2023-01-19T01:24:10.600Z,94516.88
2023-01-19T01:25:13.602Z,94515.34
2023-01-19T01:26:16.517Z,94513.03
2023-01-19T01:27:18.407Z,94522.25
2023-01-19T01:28:21.281Z,94519.97
2023-01-19T01:29:23.408Z,94534.22
2023-01-19T01:30:26.482Z,94530.78
2023-01-19T01:31:28.901Z,94525.38
2023-01-19T01:32:31.815Z,94529.59
2023-01-19T01:33:41.059Z,94533.47
2023-01-19T01:34:44.666Z,94535.00
2023-01-19T01:35:48.569Z,94531.91
2023-01-19T01:36:51.436Z,94534.63
2023-01-19T01:37:53.365Z,94534.63
2023-01-19T01:38:56.301Z,94541.19
2023-01-19T01:39:58.156Z,94546.59
2023-01-19T01:41:01.141Z,94543.13
2023-01-19T01:42:03.862Z,94542.34
2023-01-19T01:43:12.039Z,94541.56
2023-01-19T01:44:50.034Z,94545.03
2023-01-19T01:45:54.953Z,94541.19
2023-01-19T01:46:57.182Z,94543.13
2023-01-19T01:48:05.566Z,94539.63
2023-01-19T01:49:13.936Z,94536.94
2023-01-19T01:50:19.696Z,94545.03
2023-01-19T01:51:29.313Z,94540.81
2023-01-19T01:52:33.744Z,94543.50
2023-01-19T01:53:38.531Z,94543.50
2023-01-19T01:54:40.791Z,94547.38
2023-01-19T01:55:50.193Z,94553.53
2023-01-19T01:56:55.288Z,94543.91
2023-01-19T01:58:01.958Z,94547.38
2023-01-19T01:59:07.897Z,94549.28
2023-01-19T02:00:12.361Z,94545.84
2023-01-19T02:01:41.384Z,94550.09
2023-01-19T02:02:54.833Z,94547.00
2023-01-19T02:03:58.625Z,94557.78
2023-01-19T02:05:05.604Z,94565.09
2023-01-19T02:06:08.446Z,94558.94
2023-01-19T02:07:33.084Z,94561.63
2023-01-19T02:08:57.869Z,94553.53
2023-01-19T02:10:18.121Z,94556.66
2023-01-19T02:11:38.968Z,94549.72
2023-01-19T02:12:59.710Z,94553.16
2023-01-19T02:14:05.116Z,94552.41
2023-01-19T02:15:15.125Z,94551.66
2023-01-19T02:16:18.775Z,94552.78
2023-01-19T02:17:21.200Z,94554.72
2023-01-19T02:18:26.642Z,94556.28
2023-01-19T02:19:34.386Z,94550.88
2023-01-19T02:20:38.632Z,94548.94
2023-01-19T02:21:51.065Z,94558.97
2023-01-19T02:23:01.672Z,94548.94
2023-01-19T02:24:07.209Z,94558.19
2023-01-19T02:25:10.646Z,94563.59
2023-01-19T02:26:16.132Z,94555.50
2023-01-19T02:27:20.010Z,94566.28
2023-01-19T02:28:21.926Z,94566.28
2023-01-19T02:29:27.416Z,94569.78
2023-01-19T02:30:29.831Z,94570.53
2023-01-19T02:31:35.063Z,94570.53
2023-01-19T02:32:37.161Z,94567.06
2023-01-19T02:33:40.165Z,94563.59
2023-01-19T02:34:42.086Z,94571.69
2023-01-19T02:35:46.248Z,94566.28
2023-01-19T02:36:52.650Z,94566.28
2023-01-19T02:37:55.610Z,94568.97
2023-01-19T02:39:00.154Z,94568.97
2023-01-19T02:40:07.387Z,94572.84
2023-01-19T02:41:12.301Z,94576.31
2023-01-19T02:42:20.206Z,94578.25
2023-01-19T02:43:23.939Z,94580.94
2023-01-19T02:44:28.963Z,94584.41
2023-01-19T02:45:32.965Z,94578.63
2023-01-19T02:46:35.409Z,94576.72
2023-01-19T02:47:39.158Z,94577.88
2023-01-19T02:48:42.255Z,94577.88
2023-01-19T02:49:44.168Z,94579.03
2023-01-19T02:50:50.045Z,94584.44
2023-01-19T02:51:52.345Z,94579.03
2023-01-19T02:53:03.097Z,94579.03
2023-01-19T02:54:17.433Z,94582.88
2023-01-19T02:55:29.423Z,94577.50
2023-01-19T02:56:50.798Z,94580.19
2023-01-19T02:58:01.984Z,94585.56
2023-01-19T02:59:13.351Z,94587.50
2023-01-19T03:00:24.890Z,94586.75
2023-01-19T03:01:38.113Z,94583.28
2023-01-19T03:02:51.967Z,94574.41
2023-01-19T03:03:59.858Z,94577.91
2023-01-19T03:05:17.156Z,94579.41
2023-01-19T03:06:31.583Z,94581.34
2023-01-19T03:07:45.533Z,94573.69
2023-01-19T03:08:53.452Z,94572.91
2023-01-19T03:10:04.735Z,94573.69
2023-01-19T03:11:10.285Z,94572.13
2023-01-19T03:12:23.140Z,94571.38
2023-01-19T03:13:33.028Z,94570.19
2023-01-19T03:14:42.607Z,94576.38
2023-01-19T03:15:48.811Z,94572.13
2023-01-19T03:16:55.940Z,94569.44
2023-01-19T03:18:02.344Z,94566.75
2023-01-19T03:19:09.255Z,94567.50
2023-01-19T03:20:14.007Z,94568.69
2023-01-19T03:21:19.531Z,94570.63
2023-01-19T03:22:25.241Z,94565.97
2023-01-19T03:23:32.283Z,94569.81
2023-01-19T03:24:37.968Z,94570.63
2023-01-19T03:25:43.715Z,94570.63
2023-01-19T03:26:52.816Z,94570.63
2023-01-19T03:27:58.598Z,94563.66
2023-01-19T03:29:02.686Z,94574.47
2023-01-19T03:30:09.266Z,94569.06
2023-01-19T03:31:14.186Z,94570.25
2023-01-19T03:32:21.728Z,94572.94
2023-01-19T03:33:27.367Z,94571.38
2023-01-19T03:34:30.754Z,94567.53
2023-01-19T03:35:36.968Z,94574.06
2023-01-19T03:36:46.007Z,94569.84
2023-01-19T03:37:50.758Z,94571.38
2023-01-19T03:38:55.796Z,94569.84
2023-01-19T03:39:58.263Z,94574.06
2023-01-19T03:41:04.005Z,94579.47
2023-01-19T03:42:11.633Z,94582.59
2023-01-19T03:43:16.747Z,94576.41
2023-01-19T03:44:18.655Z,94579.88
2023-01-19T03:45:22.682Z,94582.97
2023-01-19T03:46:26.359Z,94581.44
2023-01-19T03:47:29.731Z,94579.88
2023-01-19T03:48:32.713Z,94581.44
2023-01-19T03:49:37.753Z,94577.97
2023-01-19T03:50:39.869Z,94590.66
2023-01-19T03:51:42.848Z,94585.28
2023-01-19T03:52:44.802Z,94582.59
2023-01-19T03:53:47.656Z,94584.53
2023-01-19T03:54:49.607Z,94594.91
2023-01-19T03:55:54.126Z,94593.38
2023-01-19T03:56:56.020Z,94590.66
2023-01-19T03:58:00.275Z,94594.91
2023-01-19T03:59:02.333Z,94589.16
2023-01-19T04:00:06.565Z,94588.34
2023-01-19T04:01:15.641Z,94594.53
2023-01-19T04:02:18.588Z,94596.06
2023-01-19T04:03:20.559Z,94591.84
2023-01-19T04:04:23.454Z,94594.53
2023-01-19T04:05:25.761Z,94598.38
2023-01-19T04:06:28.648Z,94595.69
2023-01-19T04:07:30.516Z,94591.47
2023-01-19T04:08:33.559Z,94595.69
2023-01-19T04:09:35.421Z,94594.16
2023-01-19T04:10:38.368Z,94593.41
2023-01-19T04:11:40.313Z,94590.72
2023-01-19T04:12:43.206Z,94586.84
2023-01-19T04:13:46.495Z,94592.63
2023-01-19T04:14:49.722Z,94586.06
2023-01-19T04:15:51.646Z,94590.72
2023-01-19T04:16:54.728Z,94591.47
2023-01-19T04:17:57.766Z,94593.00
2023-01-19T04:19:00.680Z,94588.78
2023-01-19T04:20:02.638Z,94590.72
2023-01-19T04:21:08.416Z,94589.91
2023-01-19T04:22:10.642Z,94587.22
2023-01-19T04:23:13.676Z,94586.06
2023-01-19T04:24:15.572Z,94584.53
2023-01-19T04:25:18.407Z,94592.63
2023-01-19T04:26:20.867Z,94584.53
2023-01-19T04:27:23.862Z,94584.53
2023-01-19T04:28:27.351Z,94583.00
2023-01-19T04:29:32.946Z,94584.16
2023-01-19T04:30:34.804Z,94585.31
2023-01-19T04:31:37.880Z,94581.88
2023-01-19T04:32:39.887Z,94581.88
2023-01-19T04:33:42.760Z,94577.66
2023-01-19T04:34:44.756Z,94585.72
2023-01-19T04:35:48.151Z,94577.66
2023-01-19T04:36:51.573Z,94581.50
2023-01-19T04:37:53.507Z,94584.19
2023-01-19T04:38:56.417Z,94586.88
2023-01-19T04:39:58.345Z,94584.59
2023-01-19T04:41:01.252Z,94578.41
2023-01-19T04:42:03.281Z,94583.81
2023-01-19T04:43:06.272Z,94585.34
2023-01-19T04:44:08.207Z,94582.28
2023-01-19T04:45:13.617Z,94589.19
2023-01-19T04:46:15.568Z,94576.88
2023-01-19T04:47:18.671Z,94579.59
2023-01-19T04:48:20.658Z,94589.19
2023-01-19T04:49:23.962Z,94579.59
2023-01-19T04:50:25.893Z,94585.34
2023-01-19T04:51:28.827Z,94578.06
2023-01-19T04:52:35.065Z,94587.66
2023-01-19T04:53:38.062Z,94586.91
2023-01-19T04:54:40.032Z,94584.59
2023-01-19T04:55:43.164Z,94586.16
2023-01-19T04:56:45.100Z,94590.75
2023-01-19T04:57:48.045Z,94591.16
2023-01-19T04:58:49.957Z,94601.53
2023-01-19T04:59:52.850Z,94590.00
2023-01-19T05:00:56.227Z,94584.59
2023-01-19T05:01:59.200Z,94590.75
2023-01-19T05:03:01.942Z,94591.53
2023-01-19T05:04:06.968Z,94591.53
2023-01-19T05:05:09.813Z,94596.94
2023-01-19T05:06:12.817Z,94594.22
2023-01-19T05:07:14.772Z,94588.84
2023-01-19T05:08:17.681Z,94595.00
2023-01-19T05:09:19.601Z,94597.69
2023-01-19T05:10:22.504Z,94596.94
2023-01-19T05:11:24.543Z,94595.75
2023-01-19T05:12:27.619Z,94591.53
2023-01-19T05:13:30.619Z,94596.94
2023-01-19T05:14:33.525Z,94596.94
2023-01-19T05:15:35.479Z,94600.75
2023-01-19T05:16:39.867Z,94598.06
2023-01-19T05:17:42.051Z,94592.69
2023-01-19T05:18:44.986Z,94599.25
2023-01-19T05:19:48.782Z,94597.69
2023-01-19T05:20:51.739Z,94597.69
2023-01-19T05:21:55.949Z,94603.84
2023-01-19T05:22:59.274Z,94601.56
2023-01-19T05:24:01.679Z,94606.19
2023-01-19T05:25:04.846Z,94605.41
2023-01-19T05:26:07.983Z,94616.97
2023-01-19T05:27:12.255Z,94609.25
2023-01-19T05:28:15.295Z,94616.16
2023-01-19T05:29:17.219Z,94610.78
2023-01-19T05:30:20.304Z,94610.78
2023-01-19T05:31:22.298Z,94616.16
2023-01-19T05:32:27.450Z,94620.03
2023-01-19T05:33:29.379Z,94613.88
2023-01-19T05:34:32.263Z,94617.72
2023-01-19T05:35:36.234Z,94614.28
2023-01-19T05:36:39.734Z,94623.53
2023-01-19T05:37:41.595Z,94618.50
2023-01-19T05:38:44.523Z,94620.44
2023-01-19T05:39:46.454Z,94618.50
2023-01-19T05:40:49.390Z,94622.38
2023-01-19T05:41:51.361Z,94611.59
2023-01-19T05:42:54.315Z,94616.22
2023-01-19T05:43:57.964Z,94625.06
2023-01-19T05:45:00.821Z,94619.69
2023-01-19T05:46:04.062Z,94622.38
2023-01-19T05:47:06.985Z,94623.53
2023-01-19T05:48:10.336Z,94620.81
2023-01-19T05:49:13.387Z,94631.59
2023-01-19T05:50:15.857Z,94630.09
2023-01-19T05:51:18.720Z,94622.75
2023-01-19T05:52:21.845Z,94623.16
2023-01-19T05:53:24.680Z,94623.16
2023-01-19T05:54:26.594Z,94633.91
2023-01-19T05:55:30.094Z,94631.59
2023-01-19T05:56:32.822Z,94638.13
2023-01-19T05:57:35.698Z,94637.00
2023-01-19T05:58:39.399Z,94635.44
2023-01-19T05:59:42.295Z,94639.31
2023-01-19T06:00:44.192Z,94637.75
2023-01-19T06:01:47.165Z,94636.22
2023-01-19T06:02:51.004Z,94641.59
2023-01-19T06:03:55.528Z,94646.59
2023-01-19T06:04:57.434Z,94646.19
2023-01-19T06:06:01.203Z,94647.75
2023-01-19T06:07:03.456Z,94640.81
2023-01-19T06:08:06.982Z,94647.75
2023-01-19T06:09:09.551Z,94647.75
2023-01-19T06:10:12.863Z,94642.75
2023-01-19T06:11:14.769Z,94648.50
2023-01-19T06:12:17.560Z,94643.13
2023-01-19T06:13:19.433Z,94647.00
2023-01-19T06:14:22.352Z,94656.22
2023-01-19T06:15:24.298Z,94646.59
2023-01-19T06:16:27.173Z,94655.47
2023-01-19T06:17:29.123Z,94652.41
2023-01-19T06:18:32.022Z,94657.78
2023-01-19T06:19:36.248Z,94657.03
2023-01-19T06:20:38.678Z,94658.94
2023-01-19T06:21:49.408Z,94664.31
2023-01-19T06:22:52.007Z,94655.47
2023-01-19T06:23:55.185Z,94658.94
2023-01-19T06:24:57.105Z,94661.63
2023-01-19T06:26:00.849Z,94660.09
2023-01-19T06:27:02.798Z,94658.56
2023-01-19T06:28:06.200Z,94662.41
2023-01-19T06:29:10.743Z,94662.41
2023-01-19T06:30:14.258Z,94663.94
2023-01-19T06:31:17.196Z,94662.41
2023-01-19T06:32:22.639Z,94668.56
2023-01-19T06:33:26.150Z,94672.03
2023-01-19T06:34:29.008Z,94675.88
2023-01-19T06:35:33.385Z,94674.38
2023-01-19T06:36:35.331Z,94673.19
2023-01-19T06:37:38.345Z,94672.44
2023-01-19T06:38:40.287Z,94677.06
2023-01-19T06:39:45.341Z,94675.13
2023-01-19T06:40:53.352Z,94675.13
2023-01-19T06:41:57.351Z,94675.13
2023-01-19T06:42:59.611Z,94685.13
2023-01-19T06:44:04.574Z,94677.81
2023-01-19T06:45:09.134Z,94683.19
2023-01-19T06:46:12.125Z,94682.44
2023-01-19T06:47:16.412Z,94680.13
2023-01-19T06:48:20.352Z,94685.50
2023-01-19T06:49:22.207Z,94682.81
2023-01-19T06:50:25.498Z,94678.59
2023-01-19T06:51:28.997Z,94685.13
2023-01-19T06:52:31.918Z,94687.06
2023-01-19T06:53:34.971Z,94688.59
2023-01-19T06:54:39.692Z,94687.84
2023-01-19T06:55:43.775Z,94688.59
2023-01-19T06:56:46.958Z,94690.91
2023-01-19T06:57:48.818Z,94688.22
2023-01-19T06:58:53.079Z,94693.22
2023-01-19T06:59:55.984Z,94697.84
2023-01-19T07:01:04.987Z,94694.00
2023-01-19T07:02:27.043Z,94695.13
2023-01-19T07:03:30.626Z,94704.38
2023-01-19T07:04:33.907Z,94695.56
2023-01-19T07:05:37.337Z,94706.31
2023-01-19T07:06:41.584Z,94705.56
2023-01-19T07:07:45.418Z,94700.19
2023-01-19T07:08:49.837Z,94710.16
2023-01-19T07:09:54.126Z,94709.41
2023-01-19T07:11:25.748Z,94706.69
2023-01-19T07:12:24.378Z,94704.00
2023-01-19T07:13:27.392Z,94709.41
2023-01-19T07:14:34.302Z,94710.16
2023-01-19T07:15:37.633Z,94708.25
2023-01-19T07:16:40.713Z,94706.69
2023-01-19T07:17:42.900Z,94709.41
2023-01-19T07:18:45.953Z,94713.25
2023-01-19T07:19:48.815Z,94704.78
2023-01-19T07:20:50.801Z,94721.72
2023-01-19T07:21:55.402Z,94716.69
2023-01-19T07:22:57.827Z,94710.56
2023-01-19T07:24:01.456Z,94716.69
2023-01-19T07:25:04.818Z,94723.25
2023-01-19T07:26:07.774Z,94717.88
2023-01-19T07:27:11.610Z,94724.00
2023-01-19T07:28:16.018Z,94717.88
2023-01-19T07:29:18.043Z,94720.56
2023-01-19T07:30:21.063Z,94724.00
2023-01-19T07:31:25.098Z,94723.25
2023-01-19T07:32:28.372Z,94723.25
2023-01-19T07:33:30.300Z,94721.69
2023-01-19T07:34:35.504Z,94719.00
2023-01-19T07:35:38.579Z,94720.94
2023-01-19T07:36:40.488Z,94722.88
2023-01-19T07:37:44.800Z,94720.19
2023-01-19T07:38:47.712Z,94725.56
2023-01-19T07:39:51.888Z,94725.16
2023-01-19T07:41:01.590Z,94732.13
2023-01-19T07:42:04.539Z,94729.41
2023-01-19T07:43:08.004Z,94733.25
2023-01-19T07:44:11.061Z,94726.34
2023-01-19T07:45:14.238Z,94730.56
2023-01-19T07:46:17.167Z,94737.13
2023-01-19T07:47:20.418Z,94727.88
2023-01-19T07:48:23.278Z,94736.31
2023-01-19T07:49:25.329Z,94739.00
2023-01-19T07:50:29.477Z,94741.69
2023-01-19T07:51:34.277Z,94730.16
2023-01-19T07:52:36.253Z,94745.19
2023-01-19T07:53:41.951Z,94740.94
2023-01-19T07:54:45.204Z,94736.72
2023-01-19T07:55:47.408Z,94740.94
2023-01-19T07:56:50.322Z,94744.41
2023-01-19T07:57:53.991Z,94739.41
2023-01-19T07:58:57.699Z,94744.81
2023-01-19T08:00:00.678Z,94740.19
2023-01-19T08:01:08.893Z,94736.72
2023-01-19T08:02:13.181Z,94744.81
2023-01-19T08:03:17.679Z,94744.81
2023-01-19T08:04:20.881Z,94745.94
2023-01-19T08:05:23.534Z,94743.25
2023-01-19T08:06:31.568Z,94741.72
2023-01-19T08:07:33.947Z,94743.25
2023-01-19T08:08:36.825Z,94738.66
2023-01-19T08:09:40.170Z,94746.31
2023-01-19T08:10:43.142Z,94740.19
2023-01-19T08:11:46.108Z,94743.63
2023-01-19T08:12:50.253Z,94735.56
2023-01-19T08:13:52.541Z,94750.56
2023-01-19T08:14:55.656Z,94747.09
2023-01-19T08:15:58.669Z,94740.94
2023-01-19T08:17:02.197Z,94746.31
2023-01-19T08:18:05.858Z,94750.19
2023-01-19T08:19:09.059Z,94747.50
2023-01-19T08:20:13.017Z,94743.63
2023-01-19T08:21:16.523Z,94749.03
2023-01-19T08:22:21.892Z,94753.28
2023-01-19T08:23:24.381Z,94742.88
2023-01-19T08:24:29.047Z,94749.41
2023-01-19T08:25:34.486Z,94759.03
2023-01-19T08:26:37.454Z,94753.66
2023-01-19T08:27:40.500Z,94748.63
2023-01-19T08:28:42.428Z,94754.00
2023-01-19T08:29:45.637Z,94749.41
2023-01-19T08:30:54.188Z,94761.72
2023-01-19T08:32:00.124Z,94766.72
2023-01-19T08:33:04.348Z,94765.56
2023-01-19T08:34:07.452Z,94755.97
2023-01-19T08:35:10.844Z,94758.66
2023-01-19T08:36:12.796Z,94764.81
2023-01-19T08:37:15.836Z,94770.94
2023-01-19T08:38:17.851Z,94765.56
2023-01-19T08:39:20.703Z,94767.88
2023-01-19T08:40:23.280Z,94773.28
2023-01-19T08:41:28.481Z,94769.81
2023-01-19T08:42:32.717Z,94774.03
2023-01-19T08:43:35.470Z,94776.34
2023-01-19T08:44:46.724Z,94771.72
2023-01-19T08:45:56.507Z,94778.66
2023-01-19T08:47:00.024Z,94784.03
2023-01-19T08:48:03.581Z,94779.44
2023-01-19T08:49:06.549Z,94782.91
2023-01-19T08:50:10.796Z,94780.19
2023-01-19T08:51:15.339Z,94780.19
2023-01-19T08:52:17.357Z,94777.50
2023-01-19T08:53:21.110Z,94786.34
2023-01-19T08:54:24.424Z,94784.81
2023-01-19T08:55:27.188Z,94785.59
2023-01-19T08:56:31.621Z,94790.97
2023-01-19T08:57:33.645Z,94784.81
2023-01-19T08:58:36.616Z,94790.97
2023-01-19T08:59:39.598Z,94785.97
2023-01-19T09:00:42.179Z,94785.19
2023-01-19T09:01:45.631Z,94792.50
2023-01-19T09:02:48.307Z,94793.28
2023-01-19T09:03:52.055Z,94785.19
2023-01-19T09:04:53.996Z,94787.88
2023-01-19T09:05:56.971Z,94785.19
2023-01-19T09:06:58.915Z,94786.72
2023-01-19T09:08:02.819Z,94784.44
2023-01-19T09:09:05.247Z,94784.03
2023-01-19T09:10:13.159Z,94785.97
2023-01-19T09:11:17.203Z,94780.56
2023-01-19T09:12:24.873Z,94789.41
2023-01-19T09:13:27.225Z,94782.50
2023-01-19T09:14:30.172Z,94790.59
2023-01-19T09:15:34.018Z,94788.66
2023-01-19T09:16:36.999Z,94792.13
2023-01-19T09:17:39.649Z,94795.59
2023-01-19T09:18:45.120Z,94794.81
2023-01-19T09:19:47.571Z,94794.44
2023-01-19T09:20:51.574Z,94798.66
2023-01-19T09:21:54.967Z,94796.75
2023-01-19T09:22:57.143Z,94794.81
2023-01-19T09:24:01.816Z,94800.19
2023-01-19T09:25:04.045Z,94788.25
2023-01-19T09:26:07.880Z,94794.06
2023-01-19T09:27:10.909Z,94787.50
2023-01-19T09:28:17.603Z,94790.19
2023-01-19T09:29:20.727Z,94782.13
2023-01-19T09:30:22.661Z,94785.56
2023-01-19T09:31:25.693Z,94785.56
2023-01-19T09:32:27.864Z,94777.91
2023-01-19T09:33:33.169Z,94788.66
2023-01-19T09:34:36.190Z,94782.13
2023-01-19T09:35:39.124Z,94783.66
2023-01-19T09:36:43.230Z,94782.50
2023-01-19T09:37:47.377Z,94781.75
2023-01-19T09:38:53.213Z,94774.81
2023-01-19T09:39:55.224Z,94778.28
2023-01-19T09:41:04.036Z,94781.75
2023-01-19T09:42:14.494Z,94782.50
2023-01-19T09:43:29.888Z,94782.50
2023-01-19T09:44:35.557Z,94775.19
2023-01-19T09:45:48.251Z,94781.38
2023-01-19T09:46:51.274Z,94780.19
2023-01-19T09:47:55.279Z,94779.06
2023-01-19T09:49:04.717Z,94780.19
2023-01-19T09:50:21.907Z,94781.75
2023-01-19T09:51:27.199Z,94777.50
2023-01-19T09:52:32.768Z,94778.28
2023-01-19T09:53:50.420Z,94782.91
2023-01-19T09:54:56.503Z,94781.75
2023-01-19T09:55:58.533Z,94784.44
2023-01-19T09:57:01.487Z,94777.50
2023-01-19T09:58:12.143Z,94786.38
2023-01-19T09:59:21.885Z,94786.38
2023-01-19T10:00:27.665Z,94779.03
2023-01-19T10:01:48.130Z,94780.19
2023-01-19T10:02:58.449Z,94780.97
2023-01-19T10:04:30.509Z,94780.97
2023-01-19T10:05:39.814Z,94783.66
2023-01-19T10:06:42.688Z,94777.50
2023-01-19T10:08:06.140Z,94785.56
2023-01-19T10:09:16.078Z,94779.81
2023-01-19T10:10:21.989Z,94782.50
2023-01-19T10:11:51.571Z,94777.88
2023-01-19T10:13:11.097Z,94785.59
2023-01-19T10:14:20.890Z,94786.34
2023-01-19T10:15:38.359Z,94791.38
2023-01-19T10:16:52.072Z,94794.06
2023-01-19T10:18:08.579Z,94791.38
2023-01-19T10:19:22.889Z,94793.69
2023-01-19T10:20:30.402Z,94799.06
2023-01-19T10:21:40.734Z,94791.75
2023-01-19T10:22:52.659Z,94790.59
2023-01-19T10:23:59.830Z,94793.28
2023-01-19T10:25:17.692Z,94790.59
2023-01-19T10:26:24.563Z,94792.50
2023-01-19T10:27:30.407Z,94800.97
2023-01-19T10:28:32.783Z,94792.13
2023-01-19T10:29:38.649Z,94795.97
2023-01-19T10:30:45.225Z,94782.88
2023-01-19T10:31:49.722Z,94790.22
2023-01-19T10:32:52.933Z,94797.13
2023-01-19T10:33:56.567Z,94792.13
2023-01-19T10:34:59.929Z,94786.34
2023-01-19T10:36:06.549Z,94780.19
2023-01-19T10:37:23.645Z,94784.81
2023-01-19T10:38:29.018Z,94788.28
2023-01-19T10:39:37.361Z,94783.28
2023-01-19T10:40:50.746Z,94780.19
2023-01-19T10:41:55.045Z,94780.59
2023-01-19T10:42:57.818Z,94786.38
2023-01-19T10:44:02.668Z,94777.88
2023-01-19T10:45:16.844Z,94789.03
2023-01-19T10:46:25.811Z,94783.66
2023-01-19T10:47:35.122Z,94780.19
2023-01-19T10:48:42.040Z,94786.34
2023-01-19T10:49:45.955Z,94777.09
2023-01-19T10:51:01.836Z,94777.91
2023-01-19T10:52:06.864Z,94779.81
2023-01-19T10:53:20.883Z,94779.44
2023-01-19T10:54:26.950Z,94784.06
2023-01-19T10:55:31.080Z,94777.91
2023-01-19T10:56:38.505Z,94775.97
2023-01-19T10:57:45.310Z,94775.97
2023-01-19T10:58:52.351Z,94774.81
2023-01-19T10:59:57.861Z,94768.66
2023-01-19T11:01:15.252Z,94777.50
2023-01-19T11:02:20.783Z,94775.56
2023-01-19T11:03:23.956Z,94781.75
2023-01-19T11:04:30.128Z,94777.50
2023-01-19T11:05:33.860Z,94776.75
2023-01-19T11:06:36.871Z,94787.53
2023-01-19T11:07:41.361Z,94782.13
2023-01-19T11:08:45.949Z,94783.66
2023-01-19T11:09:52.182Z,94783.66
2023-01-19T11:10:59.055Z,94783.28
2023-01-19T11:12:02.072Z,94784.06
2023-01-19T11:13:12.622Z,94784.06
2023-01-19T11:14:18.987Z,94780.19
2023-01-19T11:15:24.826Z,94784.81
2023-01-19T11:16:34.844Z,94776.34
2023-01-19T11:17:38.082Z,94780.19
2023-01-19T11:18:41.471Z,94783.28
2023-01-19T11:19:47.327Z,94774.41
2023-01-19T11:20:55.127Z,94775.19
2023-01-19T11:22:16.172Z,94771.34
2023-01-19T11:23:24.799Z,94779.44
2023-01-19T11:24:27.869Z,94774.03
2023-01-19T11:25:34.800Z,94772.88
2023-01-19T11:26:42.689Z,94761.72
2023-01-19T11:27:51.672Z,94770.94
2023-01-19T11:28:56.162Z,94759.41
2023-01-19T11:30:09.852Z,94761.72
2023-01-19T11:31:21.241Z,94771.34
2023-01-19T11:32:29.012Z,94766.72
2023-01-19T11:33:38.588Z,94763.25
2023-01-19T11:34:40.547Z,94764.00
2023-01-19T11:35:43.478Z,94760.19
2023-01-19T11:36:57.471Z,94754.78
2023-01-19T11:38:07.857Z,94760.94
2023-01-19T11:39:23.610Z,94762.50
2023-01-19T11:40:26.533Z,94757.09
2023-01-19T11:41:31.998Z,94757.88
2023-01-19T11:42:37.204Z,94755.16
2023-01-19T11:43:49.427Z,94759.38
2023-01-19T11:45:00.261Z,94759.38
2023-01-19T11:46:02.884Z,94752.84
2023-01-19T11:47:13.376Z,94752.84
2023-01-19T11:48:25.188Z,94757.09
2023-01-19T11:49:38.573Z,94747.06
2023-01-19T11:50:43.959Z,94747.84
2023-01-19T11:51:57.653Z,94743.22
2023-01-19T11:53:05.762Z,94744.00
2023-01-19T11:54:20.221Z,94740.13
2023-01-19T11:55:30.080Z,94751.69
2023-01-19T11:56:33.010Z,94747.06
2023-01-19T11:57:35.895Z,94748.59
2023-01-19T11:58:40.922Z,94743.19
2023-01-19T11:59:43.216Z,94738.59
2023-01-19T12:00:50.891Z,94743.19
2023-01-19T12:01:57.909Z,94739.34
2023-01-19T12:03:06.639Z,94735.50
2023-01-19T12:04:14.861Z,94732.41
2023-01-19T12:05:20.262Z,94729.34
2023-01-19T12:06:28.111Z,94728.53
2023-01-19T12:07:35.342Z,94724.72
2023-01-19T12:08:43.518Z,94731.63
2023-01-19T12:09:47.534Z,94728.53
2023-01-19T12:10:53.980Z,94724.69
2023-01-19T12:12:03.961Z,94724.69
2023-01-19T12:13:13.262Z,94728.16
2023-01-19T12:14:20.474Z,94721.59
2023-01-19T12:15:27.257Z,94726.63
2023-01-19T12:16:32.724Z,94723.91
2023-01-19T12:17:41.583Z,94723.91
2023-01-19T12:18:48.600Z,94730.06
2023-01-19T12:20:00.418Z,94722.38
2023-01-19T12:21:04.331Z,94727.75
2023-01-19T12:22:07.790Z,94719.66
2023-01-19T12:23:25.214Z,94727.00
2023-01-19T12:24:33.993Z,94718.53
2023-01-19T12:25:48.931Z,94730.84
2023-01-19T12:26:56.637Z,94725.44
2023-01-19T12:28:00.782Z,94723.91
2023-01-19T12:29:08.924Z,94721.25
2023-01-19T12:30:18.692Z,94722.38
2023-01-19T12:31:24.319Z,94717.75
2023-01-19T12:32:35.213Z,94722.38
2023-01-19T12:33:39.499Z,94725.09
2023-01-19T12:34:43.767Z,94723.56
2023-01-19T12:36:00.715Z,94725.09
2023-01-19T12:37:05.490Z,94721.63
2023-01-19T12:38:25.509Z,94717.00
2023-01-19T12:39:28.484Z,94714.31
2023-01-19T12:40:35.143Z,94719.69
2023-01-19T12:41:40.479Z,94720.06
2023-01-19T12:42:45.644Z,94722.38
2023-01-19T12:43:49.536Z,94722.00
2023-01-19T12:45:06.767Z,94719.31
2023-01-19T12:46:20.877Z,94718.56
2023-01-19T12:47:24.570Z,94721.25